Flight Track Log - Related Links

Times and Time Zones

All times are in EDT time to prevent confusion due to time zone crossing. See the AAL1460 flight status page for this flight to view local times or setup timezone preferences in your user account.

Time Position Orientation Groundspeed Altitude Reporting Facility
EDT Latitude Longitude Course Direction KTS MPH feet Rate Location/Type
Sun 01:54:10 AM 39.8167 -104.6500 171° South 166 191 7,000  Level Denver TRACON
Sun 01:55:10 AM 39.7667 -104.6333 166° South 245 282 8,300 1,600 Climbing Denver TRACON
Sun 01:55:25 AM 39.7394 -104.6211 161° South 243 280 9,000 2,560 Climbing Denver Center
Sun 01:56:00 AM 39.6445 -104.3933 205° Southwest  Level FlightAware Approximate
Sun 01:56:25 AM 39.6583 -104.5906 164° South 301 346 11,500  Level Denver Center
Sun 01:57:00 AM 39.5273 -104.4670 210° Southwest  Level FlightAware Approximate
Sun 01:57:25 AM 39.5553 -104.5636 169° South 364 419 13,800  Level Denver Center
Sun 01:58:00 AM 39.4038 -104.5000 180° South  Level FlightAware Approximate
Sun 01:58:25 AM 39.4494 -104.5378 169° South 399 459 16,500  Level Denver Center
Sun 01:59:00 AM 39.2753 -104.4784 171° South  Level FlightAware Approximate
Sun 01:59:26 AM 39.3333 -104.5097 169° South 422 486 19,200  Level Denver Center
Sun 02:00:26 AM 39.2169 -104.4756 167° South 432 497 21,800 2,450 Climbing Denver Center
Sun 02:01:26 AM 39.1358 -104.3528 130° Southeast 443 510 24,100 2,150 Climbing Denver Center
Sun 02:02:26 AM 39.0828 -104.2181 117° Southeast 443 510 26,100 1,983 Climbing Denver Center
Sun 02:03:27 AM 39.0256 -104.0764 117° Southeast 461 531 28,100 1,884 Climbing Denver Center
Sun 02:04:27 AM 38.9678 -103.9322 117° Southeast 470 541 29,900 2,000 Climbing Denver Center
Sun 02:05:27 AM 38.8981 -103.7611 118° Southeast 481 554 32,100 2,150 Climbing Denver Center
Sun 02:06:27 AM 38.8394 -103.6183 118° Southeast 472 543 34,200 1,884 Climbing Denver Center
Sun 02:07:28 AM 38.7817 -103.4792 118° Southeast 462 532 35,900 1,636 Climbing Denver Center
Sun 02:08:28 AM 38.7142 -103.3164 118° Southeast 461 531 37,500 1,400 Climbing Denver Center
Sun 02:09:28 AM 38.6558 -103.1769 118° Southeast 461 531 38,700 750 Climbing Denver Center
Sun 02:10:28 AM 38.5964 -103.0375 119° Southeast 464 534 39,000 149 Climbing Denver Center
Sun 02:11:29 AM 38.5342 -102.8931 119° Southeast 466 536 39,000  Level Denver Center
Sun 02:12:29 AM 38.4739 -102.7528 119° Southeast 470 541 39,000  Level Denver Center
Sun 02:13:29 AM 38.4022 -102.5908 119° Southeast 469 540 39,000  Level Denver Center
Sun 02:14:29 AM 38.3425 -102.4514 119° Southeast 469 540 39,000  Level Denver Center
Sun 02:15:30 AM 38.2828 -102.3147 119° Southeast 462 532 39,000  Level Denver Center
Sun 02:16:30 AM 38.2125 -102.1550 119° Southeast 462 532 39,000  Level Denver Center
Sun 02:17:30 AM 38.1531 -102.0194 119° Southeast 461 531 39,000  Level Denver Center
Sun 02:18:30 AM 38.0928 -101.8842 119° Southeast 460 529 39,000  Level Denver Center
Sun 02:19:31 AM 38.0322 -101.7475 119° Southeast 464 534 39,000  Level Denver Center
Sun 02:20:31 AM 37.9603 -101.5883 120° Southeast 465 535 39,000  Level Denver Center
Sun 02:21:31 AM 37.8986 -101.4489 119° Southeast 472 543 39,000  Level Denver Center
Sun 02:22:32 AM 37.8358 -101.3106 120° Southeast 473 544 39,000  Level Denver Center
Sun 02:23:32 AM 37.7619 -101.1486 120° Southeast 477 549 39,000  Level Denver Center
Sun 02:24:32 AM 37.6992 -101.0106 120° Southeast 475 547 39,000  Level Denver Center
Sun 02:25:37 AM 37.6239 -100.8481 120° Southeast 476 548 39,000  Level Kansas City Center
Sun 02:26:38 AM 37.5581 -100.7000 119° Southeast 480 552 39,000  Level Kansas City Center
Sun 02:27:38 AM 37.4925 -100.5569 120° Southeast 477 549 39,000  Level Kansas City Center
Sun 02:28:38 AM 37.4289 -100.4197 120° Southeast 475 547 39,000  Level Kansas City Center
Sun 02:29:38 AM 37.3644 -100.2814 120° Southeast 478 550 39,000  Level Kansas City Center
Sun 02:30:45 AM 37.2894 -100.1214 120° Southeast 476 548 39,000  Level Kansas City Center
Sun 02:31:45 AM 37.2253 -99.9853 121° Southeast 474 545 39,000  Level Kansas City Center
Sun 02:32:45 AM 37.1494 -99.8250 121° Southeast 477 549 39,000  Level Kansas City Center
Sun 02:33:45 AM 37.0842 -99.6886 121° Southeast 477 549 39,000  Level Kansas City Center
Sun 02:34:45 AM 37.0172 -99.5497 121° Southeast 476 548 39,000  Level Kansas City Center
Sun 02:35:45 AM 36.9492 -99.4064 121° Southeast 476 548 39,000  Level Kansas City Center
Sun 02:36:45 AM 36.8800 -99.2631 121° Southeast 478 550 39,000  Level Kansas City Center
Sun 02:37:45 AM 36.8114 -99.1192 121° Southeast 478 550 39,000  Level Kansas City Center
Sun 02:38:45 AM 36.7414 -98.9764 121° Southeast 478 550 39,000  Level Kansas City Center
Sun 02:39:45 AM 36.6719 -98.8344 121° Southeast 477 549 39,000  Level Kansas City Center
Sun 02:40:46 AM 36.6042 -98.6933 121° Southeast 474 545 39,000  Level Kansas City Center
Sun 02:41:46 AM 36.5336 -98.5503 122° Southeast 477 549 39,000  Level Kansas City Center
Sun 02:42:46 AM 36.4644 -98.4089 121° Southeast 476 548 39,000  Level Kansas City Center
Sun 02:43:46 AM 36.3942 -98.2667 122° Southeast 479 551 39,000  Level Kansas City Center
Sun 02:44:46 AM 36.3236 -98.1250 122° Southeast 479 551 39,000  Level Kansas City Center
Sun 02:45:46 AM 36.2619 -98.0011 122° Southeast 479 551 39,000  Level Kansas City Center
Sun 02:46:46 AM 36.1928 -97.8619 122° Southeast 476 548 39,000  Level Kansas City Center
Sun 02:47:46 AM 36.1222 -97.7233 122° Southeast 475 547 39,000  Level Kansas City Center
Sun 02:48:46 AM 36.0522 -97.5842 122° Southeast 475 547 39,000  Level Kansas City Center
Sun 02:49:46 AM 35.9828 -97.4439 121° Southeast 477 549 39,000  Level Kansas City Center
Sun 02:50:47 AM 35.9111 -97.3050 122° Southeast 477 549 39,000  Level Kansas City Center
Sun 02:51:47 AM 35.8403 -97.1650 122° Southeast 478 550 39,000  Level Kansas City Center
Sun 02:52:47 AM 35.7678 -97.0250 123° Southeast 480 552 39,000  Level Kansas City Center
Sun 02:53:47 AM 35.6953 -96.8842 122° Southeast 482 555 39,000  Level Kansas City Center
Sun 02:54:47 AM 35.6217 -96.7442 123° Southeast 483 556 39,000  Level Kansas City Center
Sun 02:55:10 AM 35.5897 -96.6811 122° Southeast 490 564 39,000  Level Fort Worth Center
Sun 02:56:10 AM 35.5136 -96.5389 123° Southeast 490 564 39,000  Level Fort Worth Center
Sun 02:57:10 AM 35.4417 -96.4019 123° Southeast 490 564 39,000  Level Fort Worth Center
Sun 02:58:10 AM 35.3697 -96.2653 123° Southeast 485 558 39,000  Level Fort Worth Center
Sun 02:59:10 AM 35.2953 -96.1267 123° Southeast 485 558 39,000  Level Fort Worth Center
Sun 03:00:10 AM 35.2250 -95.9878 122° Southeast 479 551 39,000  Level Fort Worth Center
Sun 03:01:10 AM 35.1589 -95.8694 124° Southeast 474 545 39,000  Level Fort Worth Center
Sun 03:02:10 AM 35.0864 -95.7314 123° Southeast 474 545 39,000  Level Fort Worth Center
Sun 03:03:10 AM 35.0114 -95.5933 124° Southeast 479 551 39,000  Level Fort Worth Center
Sun 03:04:10 AM 34.9383 -95.4531 122° Southeast 479 551 39,000  Level Fort Worth Center
Sun 03:05:10 AM 34.8631 -95.3158 124° Southeast 479 551 39,000  Level Fort Worth Center
Sun 03:06:10 AM 34.7792 -95.1586 123° Southeast 491 565 39,000  Level Fort Worth Center
Sun 03:07:10 AM 34.7033 -95.0192 123° Southeast 497 572 39,000  Level Fort Worth Center
Sun 03:08:10 AM 34.6278 -94.8772 123° Southeast 497 572 39,000  Level Fort Worth Center
Sun 03:09:10 AM 34.5497 -94.7358 124° Southeast 502 578 39,000  Level Fort Worth Center
Sun 03:10:10 AM 34.4736 -94.5972 124° Southeast 502 578 39,000  Level Fort Worth Center
Sun 03:11:10 AM 34.3972 -94.4564 123° Southeast 502 578 39,000  Level Fort Worth Center
Sun 03:12:10 AM 34.3189 -94.3156 124° Southeast 507 583 39,000  Level Fort Worth Center
Sun 03:13:10 AM 34.2422 -94.1753 123° Southeast 502 578 39,000  Level Fort Worth Center
Sun 03:14:10 AM 34.1633 -94.0350 124° Southeast 502 578 39,000  Level Fort Worth Center
Sun 03:15:10 AM 34.0867 -93.8975 124° Southeast 502 578 39,000  Level Fort Worth Center
Sun 03:16:10 AM 34.0075 -93.7581 124° Southeast 502 578 39,000  Level Fort Worth Center
Sun 03:17:10 AM 33.9303 -93.6186 124° Southeast 502 578 39,000  Level Fort Worth Center
Sun 03:18:10 AM 33.8683 -93.5061 124° Southeast 502 578 39,000  Level Fort Worth Center
Sun 03:19:10 AM 33.7803 -93.3553 125° Southeast 502 578 39,000  Level Fort Worth Center
Sun 03:20:10 AM 33.6983 -93.2167 125° Southeast 502 578 39,000  Level Fort Worth Center
Sun 03:21:10 AM 33.6206 -93.0758 124° Southeast 502 578 39,000  Level Fort Worth Center
Sun 03:22:10 AM 33.5406 -92.9353 124° Southeast 502 578 39,000  Level Fort Worth Center
Sun 03:23:10 AM 33.4583 -92.7950 125° Southeast 502 578 39,000  Level Fort Worth Center
Sun 03:24:10 AM 33.3800 -92.6597 125° Southeast 502 578 39,000  Level Fort Worth Center
Sun 03:25:10 AM 33.2975 -92.5178 125° Southeast 507 583 39,000  Level Fort Worth Center
Sun 03:26:10 AM 33.2169 -92.3806 125° Southeast 507 583 39,000  Level Fort Worth Center
Sun 03:27:10 AM 33.1361 -92.2439 125° Southeast 507 583 39,000  Level Fort Worth Center
Sun 03:28:10 AM 33.0575 -92.1072 124° Southeast 507 583 39,000  Level Fort Worth Center
Sun 03:28:32 AM 33.0258 -92.0594 128° Southeast 495 570 39,000  Level Memphis Center
Sun 03:29:32 AM 32.9378 -91.9242 128° Southeast 495 570 39,000  Level Memphis Center
Sun 03:30:32 AM 32.8600 -91.7842 123° Southeast 500 575 39,000  Level Memphis Center
Sun 03:31:32 AM 32.7781 -91.6494 126° Southeast 507 583 39,000  Level Memphis Center
Sun 03:32:32 AM 32.6939 -91.5100 126° Southeast 507 583 39,000  Level Memphis Center
Sun 03:33:32 AM 32.6114 -91.3733 126° Southeast 507 583 39,000  Level Memphis Center
Sun 03:34:32 AM 32.5311 -91.2369 125° Southeast 512 589 39,000  Level Memphis Center
Sun 03:35:32 AM 32.4361 -91.0808 126° Southeast 512 589 39,000  Level Memphis Center
Sun 03:36:32 AM 32.3533 -90.9425 125° Southeast 518 596 39,000  Level Memphis Center
Sun 03:37:32 AM 32.2683 -90.8019 126° Southeast 518 596 39,000  Level Memphis Center
Sun 03:38:32 AM 32.1831 -90.6642 126° Southeast 525 604 39,000  Level Memphis Center
Sun 03:39:32 AM 32.0956 -90.5264 127° Southeast 525 604 39,000  Level Memphis Center
Sun 03:40:32 AM 32.0144 -90.3892 125° Southeast 525 604 39,000  Level Memphis Center
Sun 03:42:20 AM 31.8703 -90.1575 126° Southeast 522 601 39,000  Level Houston Center
Sun 03:43:20 AM 31.7836 -90.0203 127° Southeast 521 600 39,000  Level Houston Center
Sun 03:44:21 AM 31.6989 -89.8828 126° Southeast 519 597 39,000  Level Houston Center
Sun 03:45:21 AM 31.6136 -89.7461 126° Southeast 519 597 39,000  Level Houston Center
Sun 03:46:21 AM 31.5286 -89.6097 126° Southeast 518 596 39,000  Level Houston Center
Sun 03:47:21 AM 31.4417 -89.4692 126° Southeast 517 595 39,000  Level Houston Center
Sun 03:48:21 AM 31.3578 -89.3356 126° Southeast 512 589 39,000  Level Houston Center
Sun 03:49:21 AM 31.2736 -89.2014 126° Southeast 514 592 39,000  Level Houston Center
Sun 03:50:22 AM 31.1875 -89.0650 126° Southeast 521 600 39,000  Level Houston Center
Sun 03:51:22 AM 31.1022 -88.9300 126° Southeast 518 596 39,000  Level Houston Center
Sun 03:52:22 AM 31.0175 -88.7981 127° Southeast 515 593 39,000  Level Houston Center
Sun 03:53:22 AM 30.9328 -88.6642 126° Southeast 516 594 39,000  Level Houston Center
Sun 03:54:22 AM 30.8447 -88.5264 127° Southeast 517 595 39,000  Level Houston Center
Sun 03:55:22 AM 30.7586 -88.3925 127° Southeast 516 594 39,000  Level Houston Center
Sun 03:56:23 AM 30.6622 -88.2411 126° Southeast 515 593 39,000  Level Houston Center
Sun 03:57:23 AM 30.5783 -88.1094 126° Southeast 513 590 39,000  Level Houston Center
Sun 03:58:23 AM 30.4931 -87.9781 127° Southeast 512 589 39,000  Level Houston Center
Sun 03:59:27 AM 30.4061 -87.8464 127° Southeast 519 597 39,000  Level Jacksonville Center
Sun 04:00:27 AM 30.3214 -87.7144 127° Southeast 519 597 39,000  Level Jacksonville Center
Sun 04:01:27 AM 30.2344 -87.5853 128° Southeast 519 597 39,000  Level Jacksonville Center
Sun 04:02:27 AM 30.1514 -87.4564 127° Southeast 519 597 39,000  Level Jacksonville Center
Sun 04:03:27 AM 30.0664 -87.3250 127° Southeast 519 597 39,000  Level Jacksonville Center
Sun 04:04:27 AM 29.9850 -87.1992 127° Southeast 510 587 39,000  Level Jacksonville Center
Sun 04:05:27 AM 29.8975 -87.0706 128° Southeast 504 580 39,000  Level Jacksonville Center
Sun 04:06:27 AM 29.8161 -86.9428 126° Southeast 504 580 39,000  Level Jacksonville Center
Sun 04:07:27 AM 29.7281 -86.8147 128° Southeast 510 587 39,000  Level Jacksonville Center
Sun 04:08:27 AM 29.6444 -86.6869 127° Southeast 504 580 39,000  Level Jacksonville Center
Sun 04:09:27 AM 29.5561 -86.5619 129° Southeast 504 580 39,000  Level Jacksonville Center
Sun 04:10:27 AM 29.4700 -86.4322 127° Southeast 504 580 39,000  Level Jacksonville Center
Sun 04:11:27 AM 29.3778 -86.2931 127° Southeast 511 588 39,000  Level Jacksonville Center
Sun 04:12:27 AM 29.2894 -86.1664 129° Southeast 511 588 39,000  Level Jacksonville Center
Sun 04:13:27 AM 29.2050 -86.0375 127° Southeast 506 582 39,000  Level Jacksonville Center
Sun 04:14:27 AM 29.1142 -85.9086 129° Southeast 506 582 39,000  Level Jacksonville Center
Sun 04:15:27 AM 29.0294 -85.7825 128° Southeast 506 582 39,000  Level Jacksonville Center
Sun 04:16:27 AM 28.9425 -85.6567 128° Southeast 506 582 39,000  Level Jacksonville Center
Sun 04:17:27 AM 28.8553 -85.5308 128° Southeast 506 582 39,000  Level Jacksonville Center
Sun 04:18:27 AM 28.7681 -85.4031 128° Southeast 506 582 39,000  Level Jacksonville Center
Sun 04:19:27 AM 28.6808 -85.2756 128° Southeast 506 582 39,000  Level Jacksonville Center
Sun 04:20:27 AM 28.5914 -85.1458 128° Southeast 506 582 39,000  Level Jacksonville Center
Sun 04:21:27 AM 28.5039 -85.0186 128° Southeast 512 589 39,000  Level Jacksonville Center
Sun 04:23:10 AM 28.3631 -84.8206 129° Southeast 505 581 39,000  Level Miami Center
Sun 04:24:10 AM 28.2742 -84.6942 129° Southeast 512 589 39,000  Level Miami Center
Sun 04:25:12 AM 28.1892 -84.5706 128° Southeast 511 588 39,000  Level Miami Center
Sun 04:26:12 AM 28.0969 -84.4281 126° Southeast 526 605 39,000  Level Miami Center
Sun 04:27:09 AM 28.0108 -84.2814 124° Southeast 531 611 39,000  Level Miami Center
Sun 04:28:09 AM 27.9217 -84.1464 127° Southeast 531 611 39,000  Level Miami Center
Sun 04:29:09 AM 27.8411 -84.0097 124° Southeast 531 611 39,000  Level Miami Center
Sun 04:30:11 AM 27.7603 -83.8736 124° Southeast 531 611 39,000  Level Miami Center
Sun 04:31:10 AM 27.6689 -83.7367 127° Southeast 536 617 39,000  Level Miami Center
Sun 04:32:10 AM 27.5856 -83.6006 125° Southeast 536 617 39,000  Level Miami Center
Sun 04:33:09 AM 27.4981 -83.4622 125° Southeast 536 617 39,000  Level Miami Center
Sun 04:34:12 AM 27.4125 -83.3264 125° Southeast 536 617 39,000  Level Miami Center
Sun 04:35:12 AM 27.3247 -83.1883 126° Southeast 536 617 39,000  Level Miami Center
Sun 04:36:09 AM 27.2408 -83.0531 125° Southeast 536 617 39,000  Level Miami Center
Sun 04:37:09 AM 27.1528 -82.9153 126° Southeast 536 617 39,000  Level Miami Center
Sun 04:38:11 AM 27.0667 -82.7806 126° Southeast 536 617 39,000  Level Miami Center
Sun 04:39:09 AM 26.9822 -82.6481 126° Southeast 536 617 39,000  Level Miami Center
Sun 04:40:09 AM 26.8958 -82.5111 125° Southeast 536 617 39,000  Level Miami Center
Sun 04:41:09 AM 26.8069 -82.3764 126° Southeast 536 617 39,000  Level Miami Center
Sun 04:42:10 AM 26.7203 -82.2422 126° Southeast 536 617 39,000  Level Miami Center
Sun 04:43:12 AM 26.6333 -82.1058 125° Southeast 536 617 39,000 -595 Level Miami Center
Sun 04:44:11 AM 26.5483 -81.9744 126° Southeast 536 617 37,800 -1,538 Descending Miami Center
Sun 04:45:09 AM 26.4792 -81.8625 125° Southeast 531 611 36,000 -2,350 Descending Miami Center
Sun 04:46:11 AM 26.3881 -81.7194 125° Southeast 531 611 33,100 -2,479 Descending Miami Center
Sun 04:47:10 AM 26.3044 -81.5911 126° Southeast 531 611 31,000 -2,500 Descending Miami Center
Sun 04:48:11 AM 26.2228 -81.4675 126° Southeast 518 596 28,100 -3,025 Descending Miami Center
Sun 04:49:11 AM 26.1389 -81.3439 127° Southeast 508 585 24,900 -3,288 Descending Miami Center
Sun 04:49:55 AM 26.0689 -81.2442 128° Southeast 473 544 22,400 -3,652 Descending Miami Center
Sun 04:50:43 AM 26.0069 -81.1494 126° Southeast 468 539 19,300 -3,200 Descending Miami Center
Sun 04:51:10 AM 25.9853 -81.1094 121° Southeast 481 554 18,400 -3,000 Descending Miami Center
Sun 04:51:45 AM 25.9289 -81.0311 129° Southeast 465 535 16,200 -2,951 Descending Miami Center
Sun 04:52:11 AM 25.9111 -80.9958 119° Southeast 469 540 15,400 -2,164 Descending Miami Center
Sun 04:52:46 AM 25.8697 -80.9136 119° Southeast 427 491 14,000 -2,034 Descending Miami Center
Sun 04:53:10 AM 25.8644 -80.8719 98° East 455 524 13,400 -2,656 Descending Miami Center
Sun 04:53:47 AM 25.8731 -80.7869 84° East 413 475 11,300 -2,361 Descending Miami Center
Sun 04:54:11 AM 25.8783 -80.7453 82° East 409 471 11,000 -873 Descending Miami Center
Sun 04:54:42 AM 25.8822 -80.6808 86° East 355 409 10,500 -885 Descending Miami Center
Sun 04:55:12 AM 25.8894 -80.6350 80° East 380 437 10,100 -800 Descending Miami Center
Sun 04:55:42 AM 25.8889 -80.5750 91° East 320 368 9,700 -842 Descending Miami Center
Sun 04:56:09 AM 25.8961 -80.5383 78° East 342 394 9,300 -1,345 Descending Miami Center
Sun 04:56:40 AM 25.8975 -80.4828 88° East 295 339 8,400 -1,355 Descending Miami Center
Sun 04:57:11 AM 25.9028 -80.4461 81° East 312 359 7,900 -1,147 Descending Miami Center
Sun 04:57:48 AM 25.9042 -80.3883 88° East 250 288 7,100 -1,100 Descending Miami Center
Sun 04:58:11 AM 25.9089 -80.3678 76° East 280 322 6,800 -1,500 Descending Miami Center
Sun 04:58:48 AM 25.9100 -80.3169 89° East 232 267 5,600 -1,600 Descending Miami Center
Sun 04:59:11 AM 25.9147 -80.2964 76° East 252 290 5,200 -1,333 Descending Miami Center
Sun 04:59:42 AM 25.9136 -80.2500 92° East 228 262 4,400 -783 Descending Miami Center
Sun 05:00:43 AM 25.9172 -80.1831 87° East 223 257 4,000 -198 Descending Miami Center
Sun 05:01:43 AM 25.9250 -80.1164 83° East 226 260 4,000 -462 Level Miami Center
Sun 05:02:40 AM 25.8989 -80.0672 121° Southeast 225 259 3,100 -992 Descending Miami Center
Sun 05:03:50 AM 25.8475 -80.1211 223° Southwest 216 249 1,900 -1,029 Descending Miami Center

Login

Don't have an account? Register now (free) for customized features, flight alerts, and more!